sensor_id;sensor_type;location;lat;lon;timestamp;pressure;altitude;pressure_sealevel;temperature;humidity
26112;BME280;13829;48.990;8.346;2023-10-31T00:01:07;98917.69;;;13.51;100.00
26112;BME280;13829;48.990;8.346;2023-10-31T00:03:34;98931.22;;;13.40;100.00
26112;BME280;13829;48.990;8.346;2023-10-31T00:06:02;98929.31;;;13.45;100.00
26112;BME280;13829;48.990;8.346;2023-10-31T00:08:31;98932.16;;;13.37;100.00
26112;BME280;13829;48.990;8.346;2023-10-31T00:10:58;98933.66;;;13.16;100.00
26112;BME280;13829;48.990;8.346;2023-10-31T00:13:25;98942.19;;;13.25;100.00
26112;BME280;13829;48.990;8.346;2023-10-31T00:15:52;98942.31;;;13.21;100.00
26112;BME280;13829;48.990;8.346;2023-10-31T00:18:19;98949.31;;;13.23;100.00
26112;BME280;13829;48.990;8.346;2023-10-31T00:20:46;98951.84;;;13.26;100.00
26112;BME280;13829;48.990;8.346;2023-10-31T00:23:15;98960.84;;;13.18;100.00
26112;BME280;13829;48.990;8.346;2023-10-31T00:25:43;98955.41;;;13.25;100.00
26112;BME280;13829;48.990;8.346;2023-10-31T00:28:10;98956.59;;;13.14;100.00
26112;BME280;13829;48.990;8.346;2023-10-31T00:30:37;98956.50;;;13.17;100.00
26112;BME280;13829;48.990;8.346;2023-10-31T00:33:04;98964.84;;;13.02;100.00
26112;BME280;13829;48.990;8.346;2023-10-31T00:35:31;98951.69;;;13.00;100.00
26112;BME280;13829;48.990;8.346;2023-10-31T00:37:58;98955.13;;;13.04;100.00
26112;BME280;13829;48.990;8.346;2023-10-31T00:40:26;98954.16;;;13.07;100.00
26112;BME280;13829;48.990;8.346;2023-10-31T00:42:54;98956.53;;;12.84;100.00
26112;BME280;13829;48.990;8.346;2023-10-31T00:45:24;98952.25;;;12.80;100.00
26112;BME280;13829;48.990;8.346;2023-10-31T00:47:51;98959.94;;;12.89;100.00
26112;BME280;13829;48.990;8.346;2023-10-31T00:50:17;98961.13;;;12.78;100.00
26112;BME280;13829;48.990;8.346;2023-10-31T00:52:45;98961.25;;;12.73;100.00
26112;BME280;13829;48.990;8.346;2023-10-31T00:55:12;98957.63;;;12.77;100.00
26112;BME280;13829;48.990;8.346;2023-10-31T00:57:39;98954.25;;;12.72;100.00
26112;BME280;13829;48.990;8.346;2023-10-31T01:00:08;98953.28;;;12.75;100.00
26112;BME280;13829;48.990;8.346;2023-10-31T01:02:35;98955.84;;;12.78;100.00
26112;BME280;13829;48.990;8.346;2023-10-31T01:05:03;98953.28;;;12.75;100.00
26112;BME280;13829;48.990;8.346;2023-10-31T01:07:30;98958.47;;;12.78;100.00
26112;BME280;13829;48.990;8.346;2023-10-31T01:09:57;98968.69;;;12.90;100.00
26112;BME280;13829;48.990;8.346;2023-10-31T01:12:24;98970.44;;;12.91;100.00
26112;BME280;13829;48.990;8.346;2023-10-31T01:14:53;98959.22;;;12.83;100.00
26112;BME280;13829;48.990;8.346;2023-10-31T01:17:21;98963.94;;;13.03;100.00
26112;BME280;13829;48.990;8.346;2023-10-31T01:19:48;98957.28;;;12.89;100.00
26112;BME280;13829;48.990;8.346;2023-10-31T01:22:15;98959.94;;;12.88;100.00
26112;BME280;13829;48.990;8.346;2023-10-31T01:24:43;98957.47;;;12.83;100.00
26112;BME280;13829;48.990;8.346;2023-10-31T01:27:10;98961.06;;;12.79;100.00
26112;BME280;13829;48.990;8.346;2023-10-31T01:29:37;98959.38;;;12.78;100.00
26112;BME280;13829;48.990;8.346;2023-10-31T01:32:04;98971.47;;;12.85;100.00
26112;BME280;13829;48.990;8.346;2023-10-31T01:34:33;98959.25;;;12.81;100.00
26112;BME280;13829;48.990;8.346;2023-10-31T01:37:00;98966.19;;;12.85;100.00
26112;BME280;13829;48.990;8.346;2023-10-31T01:39:27;98967.19;;;12.81;100.00
26112;BME280;13829;48.990;8.346;2023-10-31T01:41:54;98966.59;;;12.70;100.00
26112;BME280;13829;48.990;8.346;2023-10-31T01:44:21;98961.44;;;12.67;100.00
26112;BME280;13829;48.990;8.346;2023-10-31T01:46:48;98973.13;;;12.56;100.00
26112;BME280;13829;48.990;8.346;2023-10-31T01:49:15;98974.97;;;12.53;100.00
26112;BME280;13829;48.990;8.346;2023-10-31T01:51:45;98975.09;;;12.48;100.00
26112;BME280;13829;48.990;8.346;2023-10-31T01:54:13;98976.22;;;12.38;100.00
26112;BME280;13829;48.990;8.346;2023-10-31T01:56:42;98978.19;;;12.30;100.00
26112;BME280;13829;48.990;8.346;2023-10-31T01:59:09;98981.94;;;12.19;100.00
26112;BME280;13829;48.990;8.346;2023-10-31T02:01:38;98996.16;;;12.12;100.00
26112;BME280;13829;48.990;8.346;2023-10-31T02:04:06;99000.72;;;12.05;100.00
26112;BME280;13829;48.990;8.346;2023-10-31T02:06:33;99001.28;;;12.18;100.00
26112;BME280;13829;48.990;8.346;2023-10-31T02:09:02;99010.31;;;12.08;100.00
26112;BME280;13829;48.990;8.346;2023-10-31T02:11:29;99003.53;;;11.98;100.00
26112;BME280;13829;48.990;8.346;2023-10-31T02:13:56;99004.19;;;12.07;100.00
26112;BME280;13829;48.990;8.346;2023-10-31T02:16:23;99014.94;;;11.98;100.00
26112;BME280;13829;48.990;8.346;2023-10-31T02:18:51;99005.28;;;11.99;100.00
26112;BME280;13829;48.990;8.346;2023-10-31T02:21:20;99015.22;;;11.86;100.00
26112;BME280;13829;48.990;8.346;2023-10-31T02:23:57;99010.75;;;11.89;100.00
26112;BME280;13829;48.990;8.346;2023-10-31T02:26:29;99018.38;;;12.03;100.00
26112;BME280;13829;48.990;8.346;2023-10-31T02:28:56;99020.66;;;12.17;100.00
26112;BME280;13829;48.990;8.346;2023-10-31T02:31:24;99027.56;;;12.23;100.00
26112;BME280;13829;48.990;8.346;2023-10-31T02:33:51;99035.41;;;12.24;100.00
26112;BME280;13829;48.990;8.346;2023-10-31T02:36:19;99040.69;;;12.24;100.00
26112;BME280;13829;48.990;8.346;2023-10-31T02:38:46;99044.78;;;12.38;100.00
26112;BME280;13829;48.990;8.346;2023-10-31T02:41:14;99051.69;;;12.42;100.00
26112;BME280;13829;48.990;8.346;2023-10-31T02:43:42;99055.88;;;12.51;100.00
26112;BME280;13829;48.990;8.346;2023-10-31T02:46:09;99045.34;;;12.51;100.00
26112;BME280;13829;48.990;8.346;2023-10-31T02:48:38;99054.34;;;12.42;100.00
26112;BME280;13829;48.990;8.346;2023-10-31T02:51:06;99044.31;;;12.56;100.00
26112;BME280;13829;48.990;8.346;2023-10-31T02:53:33;99053.19;;;12.52;100.00
26112;BME280;13829;48.990;8.346;2023-10-31T02:56:00;99050.75;;;12.45;100.00
26112;BME280;13829;48.990;8.346;2023-10-31T02:58:28;99059.59;;;12.42;100.00
26112;BME280;13829;48.990;8.346;2023-10-31T03:00:55;99059.41;;;12.50;100.00
26112;BME280;13829;48.990;8.346;2023-10-31T03:03:22;99051.06;;;12.68;100.00
26112;BME280;13829;48.990;8.346;2023-10-31T03:05:49;99057.94;;;12.74;100.00
26112;BME280;13829;48.990;8.346;2023-10-31T03:08:16;99064.13;;;12.73;100.00
26112;BME280;13829;48.990;8.346;2023-10-31T03:10:47;99075.53;;;12.73;100.00
26112;BME280;13829;48.990;8.346;2023-10-31T03:13:16;99084.44;;;12.69;100.00
26112;BME280;13829;48.990;8.346;2023-10-31T03:15:46;99084.63;;;12.62;100.00
26112;BME280;13829;48.990;8.346;2023-10-31T03:18:13;99085.50;;;12.62;100.00
26112;BME280;13829;48.990;8.346;2023-10-31T03:20:43;99087.28;;;12.62;100.00
26112;BME280;13829;48.990;8.346;2023-10-31T03:23:11;99091.72;;;12.60;100.00
26112;BME280;13829;48.990;8.346;2023-10-31T03:25:38;99090.13;;;12.52;100.00
26112;BME280;13829;48.990;8.346;2023-10-31T03:28:18;99084.78;;;12.55;100.00
26112;BME280;13829;48.990;8.346;2023-10-31T03:30:47;99089.72;;;12.68;100.00
26112;BME280;13829;48.990;8.346;2023-10-31T03:33:14;99087.75;;;12.78;100.00
26112;BME280;13829;48.990;8.346;2023-10-31T03:35:41;99088.78;;;12.70;100.00
26112;BME280;13829;48.990;8.346;2023-10-31T03:38:08;99100.06;;;12.77;100.00
26112;BME280;13829;48.990;8.346;2023-10-31T03:40:36;99105.31;;;12.79;100.00
26112;BME280;13829;48.990;8.346;2023-10-31T03:43:03;99107.25;;;12.72;100.00
26112;BME280;13829;48.990;8.346;2023-10-31T03:45:30;99107.09;;;12.78;100.00
26112;BME280;13829;48.990;8.346;2023-10-31T03:47:58;99110.69;;;12.74;100.00
26112;BME280;13829;48.990;8.346;2023-10-31T03:50:25;99109.13;;;12.67;100.00
26112;BME280;13829;48.990;8.346;2023-10-31T03:52:52;99119.72;;;12.64;100.00
26112;BME280;13829;48.990;8.346;2023-10-31T03:55:19;99123.44;;;12.56;100.00
26112;BME280;13829;48.990;8.346;2023-10-31T03:57:46;99131.38;;;12.55;100.00
26112;BME280;13829;48.990;8.346;2023-10-31T04:00:15;99128.72;;;12.56;100.00
26112;BME280;13829;48.990;8.346;2023-10-31T04:02:42;99121.63;;;12.59;100.00
26112;BME280;13829;48.990;8.346;2023-10-31T04:05:10;99127.03;;;12.52;100.00
26112;BME280;13829;48.990;8.346;2023-10-31T04:07:37;99125.09;;;12.61;100.00
26112;BME280;13829;48.990;8.346;2023-10-31T04:10:06;99121.63;;;12.59;100.00
26112;BME280;13829;48.990;8.346;2023-10-31T04:12:35;99125.25;;;12.54;100.00
26112;BME280;13829;48.990;8.346;2023-10-31T04:15:02;99127.91;;;12.53;100.00
26112;BME280;13829;48.990;8.346;2023-10-31T04:17:30;99129.47;;;12.62;100.00
26112;BME280;13829;48.990;8.346;2023-10-31T04:19:57;99116.34;;;12.59;100.00
26112;BME280;13829;48.990;8.346;2023-10-31T04:22:25;99116.19;;;12.65;100.00
26112;BME280;13829;48.990;8.346;2023-10-31T04:24:52;99118.22;;;12.53;100.00
26112;BME280;13829;48.990;8.346;2023-10-31T04:27:19;99116.31;;;12.60;100.00
26112;BME280;13829;48.990;8.346;2023-10-31T04:29:46;99114.47;;;12.64;100.00
26112;BME280;13829;48.990;8.346;2023-10-31T04:32:13;99120.06;;;12.50;100.00
26112;BME280;13829;48.990;8.346;2023-10-31T04:34:40;99117.94;;;12.66;100.00
26112;BME280;13829;48.990;8.346;2023-10-31T04:37:07;99119.13;;;12.52;100.00
26112;BME280;13829;48.990;8.346;2023-10-31T04:39:35;99118.00;;;12.63;100.00
26112;BME280;13829;48.990;8.346;2023-10-31T04:42:03;99119.88;;;12.57;100.00
26112;BME280;13829;48.990;8.346;2023-10-31T04:44:30;99128.53;;;12.63;100.00
26112;BME280;13829;48.990;8.346;2023-10-31T04:46:57;99127.97;;;12.50;100.00
26112;BME280;13829;48.990;8.346;2023-10-31T04:49:24;99123.47;;;12.55;100.00
26112;BME280;13829;48.990;8.346;2023-10-31T04:51:51;99116.47;;;12.52;100.00
26112;BME280;13829;48.990;8.346;2023-10-31T04:54:18;99109.31;;;12.57;100.00
26112;BME280;13829;48.990;8.346;2023-10-31T04:56:47;99118.31;;;12.49;100.00
26112;BME280;13829;48.990;8.346;2023-10-31T04:59:14;99122.59;;;12.54;100.00
26112;BME280;13829;48.990;8.346;2023-10-31T05:01:41;99124.41;;;12.52;100.00
26112;BME280;13829;48.990;8.346;2023-10-31T05:04:14;99130.44;;;12.57;100.00
26112;BME280;13829;48.990;8.346;2023-10-31T05:06:41;99139.66;;;12.77;100.00
26112;BME280;13829;48.990;8.346;2023-10-31T05:09:08;99130.44;;;12.57;100.00
26112;BME280;13829;48.990;8.346;2023-10-31T05:11:36;99144.59;;;12.53;100.00
26112;BME280;13829;48.990;8.346;2023-10-31T05:14:04;99134.41;;;12.38;100.00
26112;BME280;13829;48.990;8.346;2023-10-31T05:16:31;99132.75;;;12.32;100.00
26112;BME280;13829;48.990;8.346;2023-10-31T05:18:58;99129.28;;;12.32;100.00
26112;BME280;13829;48.990;8.346;2023-10-31T05:21:30;99130.75;;;12.45;100.00
26112;BME280;13829;48.990;8.346;2023-10-31T05:23:57;99134.53;;;12.32;100.00
26112;BME280;13829;48.990;8.346;2023-10-31T05:26:24;99135.44;;;12.31;100.00
26112;BME280;13829;48.990;8.346;2023-10-31T05:28:50;99138.16;;;12.28;100.00
26112;BME280;13829;48.990;8.346;2023-10-31T05:31:19;99142.09;;;12.47;100.00
26112;BME280;13829;48.990;8.346;2023-10-31T05:33:46;99144.78;;;12.46;100.00
26112;BME280;13829;48.990;8.346;2023-10-31T05:36:18;99148.63;;;12.31;100.00
26112;BME280;13829;48.990;8.346;2023-10-31T05:38:46;99149.94;;;12.50;100.00
26112;BME280;13829;48.990;8.346;2023-10-31T05:41:14;99159.94;;;12.36;100.00
26112;BME280;13829;48.990;8.346;2023-10-31T05:43:41;99165.16;;;12.39;100.00
26112;BME280;13829;48.990;8.346;2023-10-31T05:46:08;99177.44;;;12.38;100.00
26112;BME280;13829;48.990;8.346;2023-10-31T05:48:39;99179.06;;;12.46;100.00
26112;BME280;13829;48.990;8.346;2023-10-31T05:51:12;99180.16;;;12.35;100.00
26112;BME280;13829;48.990;8.346;2023-10-31T05:53:41;99183.47;;;12.44;100.00
26112;BME280;13829;48.990;8.346;2023-10-31T05:56:09;99195.97;;;12.35;100.00
26112;BME280;13829;48.990;8.346;2023-10-31T05:58:37;99193.41;;;12.32;100.00
26112;BME280;13829;48.990;8.346;2023-10-31T06:01:05;99196.84;;;12.36;100.00
26112;BME280;13829;48.990;8.346;2023-10-31T06:03:32;99199.56;;;12.33;100.00
26112;BME280;13829;48.990;8.346;2023-10-31T06:06:01;99205.50;;;12.43;100.00
26112;BME280;13829;48.990;8.346;2023-10-31T06:08:27;99203.91;;;12.35;100.00
26112;BME280;13829;48.990;8.346;2023-10-31T06:10:55;99208.28;;;12.36;100.00
26112;BME280;13829;48.990;8.346;2023-10-31T06:13:23;99211.69;;;12.40;100.00
26112;BME280;13829;48.990;8.346;2023-10-31T06:15:51;99222.22;;;12.42;100.00
26112;BME280;13829;48.990;8.346;2023-10-31T06:18:18;99216.09;;;12.39;100.00
26112;BME280;13829;48.990;8.346;2023-10-31T06:20:45;99216.81;;;12.46;100.00
26112;BME280;13829;48.990;8.346;2023-10-31T06:23:13;99233.56;;;12.44;100.00
26112;BME280;13829;48.990;8.346;2023-10-31T06:25:40;99227.50;;;12.42;100.00
26112;BME280;13829;48.990;8.346;2023-10-31T06:28:07;99227.72;;;12.31;100.00
26112;BME280;13829;48.990;8.346;2023-10-31T06:30:34;99238.03;;;12.40;100.00
26112;BME280;13829;48.990;8.346;2023-10-31T06:33:02;99239.03;;;12.36;100.00
26112;BME280;13829;48.990;8.346;2023-10-31T06:35:29;99239.91;;;12.35;100.00
26112;BME280;13829;48.990;8.346;2023-10-31T06:37:56;99240.75;;;12.37;100.00
26112;BME280;13829;48.990;8.346;2023-10-31T06:40:25;99249.44;;;12.42;100.00
26112;BME280;13829;48.990;8.346;2023-10-31T06:42:53;99246.75;;;12.44;100.00
26112;BME280;13829;48.990;8.346;2023-10-31T06:45:20;99244.38;;;12.33;100.00
26112;BME280;13829;48.990;8.346;2023-10-31T06:47:47;99243.19;;;12.46;100.00
26112;BME280;13829;48.990;8.346;2023-10-31T06:50:14;99249.56;;;12.36;100.00
26112;BME280;13829;48.990;8.346;2023-10-31T06:52:41;99242.41;;;12.43;100.00
26112;BME280;13829;48.990;8.346;2023-10-31T06:55:08;99248.59;;;12.42;100.00
26112;BME280;13829;48.990;8.346;2023-10-31T06:57:37;99247.69;;;12.41;100.00
26112;BME280;13829;48.990;8.346;2023-10-31T07:00:05;99254.72;;;12.42;100.00
26112;BME280;13829;48.990;8.346;2023-10-31T07:02:34;99250.22;;;12.47;100.00
26112;BME280;13829;48.990;8.346;2023-10-31T07:05:01;99255.41;;;12.52;100.00
26112;BME280;13829;48.990;8.346;2023-10-31T07:07:29;99259.66;;;12.57;100.00
26112;BME280;13829;48.990;8.346;2023-10-31T07:09:56;99258.84;;;12.55;100.00
26112;BME280;13829;48.990;8.346;2023-10-31T07:12:23;99267.59;;;12.56;100.00
26112;BME280;13829;48.990;8.346;2023-10-31T07:14:52;99260.72;;;12.50;100.00
26112;BME280;13829;48.990;8.346;2023-10-31T07:17:19;99269.38;;;12.55;100.00
26112;BME280;13829;48.990;8.346;2023-10-31T07:19:46;99276.41;;;12.56;100.00
26112;BME280;13829;48.990;8.346;2023-10-31T07:22:13;99274.59;;;12.59;100.00
26112;BME280;13829;48.990;8.346;2023-10-31T07:24:41;99286.03;;;12.59;100.00
26112;BME280;13829;48.990;8.346;2023-10-31T07:27:08;99294.03;;;12.54;100.00
26112;BME280;13829;48.990;8.346;2023-10-31T07:29:39;99288.63;;;12.61;100.00
26112;BME280;13829;48.990;8.346;2023-10-31T07:32:07;99300.69;;;12.71;100.00
26112;BME280;13829;48.990;8.346;2023-10-31T07:34:34;99307.63;;;12.75;100.00
26112;BME280;13829;48.990;8.346;2023-10-31T07:37:01;99298.84;;;12.76;100.00
26112;BME280;13829;48.990;8.346;2023-10-31T07:39:28;99305.84;;;12.77;100.00
26112;BME280;13829;48.990;8.346;2023-10-31T07:41:55;99307.50;;;12.81;100.00
26112;BME280;13829;48.990;8.346;2023-10-31T07:44:22;99306.66;;;12.81;100.00
26112;BME280;13829;48.990;8.346;2023-10-31T07:46:49;99314.28;;;12.93;100.00
26112;BME280;13829;48.990;8.346;2023-10-31T07:49:17;99314.13;;;13.01;100.00
26112;BME280;13829;48.990;8.346;2023-10-31T07:51:44;99319.31;;;13.04;100.00
26112;BME280;13829;48.990;8.346;2023-10-31T07:54:13;99325.41;;;13.08;100.00
26112;BME280;13829;48.990;8.346;2023-10-31T07:56:41;99327.13;;;13.10;100.00
26112;BME280;13829;48.990;8.346;2023-10-31T07:59:09;99325.84;;;13.27;100.00
26112;BME280;13829;48.990;8.346;2023-10-31T08:01:36;99324.19;;;13.23;100.00
26112;BME280;13829;48.990;8.346;2023-10-31T08:04:04;99323.88;;;13.36;100.00
26112;BME280;13829;48.990;8.346;2023-10-31T08:06:32;99323.03;;;13.34;100.00
26112;BME280;13829;48.990;8.346;2023-10-31T08:08:59;99329.06;;;13.41;100.00
26112;BME280;13829;48.990;8.346;2023-10-31T08:11:26;99332.78;;;13.31;100.00
26112;BME280;13829;48.990;8.346;2023-10-31T08:13:53;99338.06;;;13.31;100.00
26112;BME280;13829;48.990;8.346;2023-10-31T08:16:21;99336.16;;;13.39;100.00
26112;BME280;13829;48.990;8.346;2023-10-31T08:18:48;99342.97;;;13.49;100.00
26112;BME280;13829;48.990;8.346;2023-10-31T08:21:16;99346.22;;;13.61;100.00
26112;BME280;13829;48.990;8.346;2023-10-31T08:23:44;99354.66;;;13.75;100.00
26112;BME280;13829;48.990;8.346;2023-10-31T08:26:12;99349.97;;;13.86;100.00
26112;BME280;13829;48.990;8.346;2023-10-31T08:28:39;99359.53;;;13.91;100.00
26112;BME280;13829;48.990;8.346;2023-10-31T08:31:06;99364.81;;;13.91;100.00
26112;BME280;13829;48.990;8.346;2023-10-31T08:33:33;99358.78;;;13.87;100.00
26112;BME280;13829;48.990;8.346;2023-10-31T08:36:00;99360.88;;;14.07;100.00
26112;BME280;13829;48.990;8.346;2023-10-31T08:38:27;99373.78;;;14.19;100.00
26112;BME280;13829;48.990;8.346;2023-10-31T08:40:58;99374.53;;;14.25;100.00
26112;BME280;13829;48.990;8.346;2023-10-31T08:43:25;99377.00;;;14.31;100.00
26112;BME280;13829;48.990;8.346;2023-10-31T08:45:52;99368.22;;;14.30;100.00
26112;BME280;13829;48.990;8.346;2023-10-31T08:48:19;99369.66;;;14.42;100.00
26112;BME280;13829;48.990;8.346;2023-10-31T08:50:46;99373.19;;;14.41;100.00
26112;BME280;13829;48.990;8.346;2023-10-31T08:53:13;99377.25;;;14.55;100.00
26112;BME280;13829;48.990;8.346;2023-10-31T08:55:40;99378.47;;;14.43;100.00
26112;BME280;13829;48.990;8.346;2023-10-31T08:58:11;99377.84;;;14.33;99.79
26112;BME280;13829;48.990;8.346;2023-10-31T09:00:38;99380.66;;;14.27;100.00
26112;BME280;13829;48.990;8.346;2023-10-31T09:03:06;99384.50;;;14.15;100.00
26112;BME280;13829;48.990;8.346;2023-10-31T09:05:33;99387.88;;;14.20;100.00
26112;BME280;13829;48.990;8.346;2023-10-31T09:08:00;99392.09;;;14.27;100.00
26112;BME280;13829;48.990;8.346;2023-10-31T09:10:27;99386.84;;;14.26;100.00
26112;BME280;13829;48.990;8.346;2023-10-31T09:12:54;99394.72;;;14.27;98.98
26112;BME280;13829;48.990;8.346;2023-10-31T09:15:23;99391.63;;;14.11;98.94
26112;BME280;13829;48.990;8.346;2023-10-31T09:17:50;99386.63;;;14.00;99.68
26112;BME280;13829;48.990;8.346;2023-10-31T09:20:17;99393.16;;;13.85;100.00
26112;BME280;13829;48.990;8.346;2023-10-31T09:22:44;99393.75;;;13.97;100.00
26112;BME280;13829;48.990;8.346;2023-10-31T09:25:11;99393.91;;;13.91;100.00
26112;BME280;13829;48.990;8.346;2023-10-31T09:27:40;99401.22;;;13.81;100.00
26112;BME280;13829;48.990;8.346;2023-10-31T09:30:08;99394.75;;;13.93;100.00
26112;BME280;13829;48.990;8.346;2023-10-31T09:32:36;99393.78;;;13.95;100.00
26112;BME280;13829;48.990;8.346;2023-10-31T09:35:04;99389.56;;;13.88;100.00
26112;BME280;13829;48.990;8.346;2023-10-31T09:37:33;99406.97;;;13.97;100.00
26112;BME280;13829;48.990;8.346;2023-10-31T09:40:00;99394.75;;;13.93;100.00
26112;BME280;13829;48.990;8.346;2023-10-31T09:42:28;99399.78;;;14.02;100.00
26112;BME280;13829;48.990;8.346;2023-10-31T09:44:55;99401.38;;;14.09;100.00
26112;BME280;13829;48.990;8.346;2023-10-31T09:47:22;99405.44;;;14.23;100.00
26112;BME280;13829;48.990;8.346;2023-10-31T09:49:51;99407.91;;;14.30;100.00
26112;BME280;13829;48.990;8.346;2023-10-31T09:52:18;99406.78;;;14.39;100.00
26112;BME280;13829;48.990;8.346;2023-10-31T09:54:48;99404.13;;;14.39;100.00
26112;BME280;13829;48.990;8.346;2023-10-31T09:57:17;99410.03;;;14.49;100.00
26112;BME280;13829;48.990;8.346;2023-10-31T09:59:44;99411.56;;;14.58;100.00
26112;BME280;13829;48.990;8.346;2023-10-31T10:02:11;99415.13;;;14.57;100.00
26112;BME280;13829;48.990;8.346;2023-10-31T10:04:39;99403.53;;;14.61;100.00
26112;BME280;13829;48.990;8.346;2023-10-31T10:07:07;99415.63;;;14.71;100.00
26112;BME280;13829;48.990;8.346;2023-10-31T10:09:35;99409.44;;;14.72;99.48
26112;BME280;13829;48.990;8.346;2023-10-31T10:12:02;99414.81;;;14.69;100.00
26112;BME280;13829;48.990;8.346;2023-10-31T10:14:32;99425.44;;;14.67;99.80
26112;BME280;13829;48.990;8.346;2023-10-31T10:16:59;99420.38;;;14.58;100.00
26112;BME280;13829;48.990;8.346;2023-10-31T10:19:26;99424.94;;;14.51;100.00
26112;BME280;13829;48.990;8.346;2023-10-31T10:21:57;99424.19;;;14.46;100.00
26112;BME280;13829;48.990;8.346;2023-10-31T10:24:25;99424.28;;;14.43;100.00
26112;BME280;13829;48.990;8.346;2023-10-31T10:26:53;99420.22;;;14.30;100.00
26112;BME280;13829;48.990;8.346;2023-10-31T10:29:20;99430.44;;;14.45;100.00
26112;BME280;13829;48.990;8.346;2023-10-31T10:31:47;99424.50;;;14.35;100.00
26112;BME280;13829;48.990;8.346;2023-10-31T10:34:15;99422.66;;;14.39;100.00
26112;BME280;13829;48.990;8.346;2023-10-31T10:36:47;99421.28;;;14.57;100.00
26112;BME280;13829;48.990;8.346;2023-10-31T10:39:20;99419.75;;;14.48;100.00
26112;BME280;13829;48.990;8.346;2023-10-31T10:41:53;99420.84;;;14.74;100.00
26112;BME280;13829;48.990;8.346;2023-10-31T10:44:34;99416.50;;;14.72;100.00
26112;BME280;13829;48.990;8.346;2023-10-31T10:47:04;99415.38;;;14.80;99.52
26112;BME280;13829;48.990;8.346;2023-10-31T10:49:34;99410.19;;;14.77;99.28
26112;BME280;13829;48.990;8.346;2023-10-31T10:52:16;99405.66;;;14.81;100.00
26112;BME280;13829;48.990;8.346;2023-10-31T10:54:51;99410.97;;;14.79;100.00
26112;BME280;13829;48.990;8.346;2023-10-31T10:57:32;99415.88;;;14.62;100.00
26112;BME280;13829;48.990;8.346;2023-10-31T11:00:05;99408.56;;;14.72;100.00
26112;BME280;13829;48.990;8.346;2023-10-31T11:02:36;99412.31;;;14.64;100.00
26112;BME280;13829;48.990;8.346;2023-10-31T11:05:05;99407.59;;;14.76;100.00
26112;BME280;13829;48.990;8.346;2023-10-31T11:07:35;99399.66;;;14.74;100.00
26112;BME280;13829;48.990;8.346;2023-10-31T11:10:02;99409.78;;;14.91;100.00
26112;BME280;13829;48.990;8.346;2023-10-31T11:12:33;99398.19;;;14.95;100.00
26112;BME280;13829;48.990;8.346;2023-10-31T11:15:02;99397.16;;;15.01;100.00
26112;BME280;13829;48.990;8.346;2023-10-31T11:17:34;99409.28;;;15.08;99.21
26112;BME280;13829;48.990;8.346;2023-10-31T11:20:02;99405.81;;;15.06;97.92
26112;BME280;13829;48.990;8.346;2023-10-31T11:22:38;99413.03;;;15.01;97.22
26112;BME280;13829;48.990;8.346;2023-10-31T11:25:07;99405.53;;;14.86;97.20
26112;BME280;13829;48.990;8.346;2023-10-31T11:27:35;99412.78;;;14.79;97.83
26112;BME280;13829;48.990;8.346;2023-10-31T11:30:06;99417.78;;;14.57;100.00
26112;BME280;13829;48.990;8.346;2023-10-31T11:32:33;99413.13;;;14.66;100.00
26112;BME280;13829;48.990;8.346;2023-10-31T11:35:00;99422.75;;;14.69;100.00
26112;BME280;13829;48.990;8.346;2023-10-31T11:37:33;99423.69;;;14.66;100.00
26112;BME280;13829;48.990;8.346;2023-10-31T11:40:20;99413.84;;;14.73;100.00
26112;BME280;13829;48.990;8.346;2023-10-31T11:42:51;99427.59;;;14.51;100.00
26112;BME280;13829;48.990;8.346;2023-10-31T11:45:28;99423.06;;;14.57;100.00
26112;BME280;13829;48.990;8.346;2023-10-31T11:47:55;99425.03;;;14.48;100.00
26112;BME280;13829;48.990;8.346;2023-10-31T11:50:23;99420.16;;;14.67;100.00
26112;BME280;13829;48.990;8.346;2023-10-31T11:53:05;99419.75;;;14.81;100.00
26112;BME280;13829;48.990;8.346;2023-10-31T11:55:35;99418.19;;;14.74;100.00
26112;BME280;13829;48.990;8.346;2023-10-31T11:58:18;99426.13;;;14.74;100.00
26112;BME280;13829;48.990;8.346;2023-10-31T12:00:46;99431.47;;;14.73;100.00
26112;BME280;13829;48.990;8.346;2023-10-31T12:03:16;99435.00;;;14.73;100.00
26112;BME280;13829;48.990;8.346;2023-10-31T12:05:52;99432.88;;;14.84;100.00
26112;BME280;13829;48.990;8.346;2023-10-31T12:08:28;99431.34;;;15.09;100.00
26112;BME280;13829;48.990;8.346;2023-10-31T12:11:10;99437.41;;;15.12;100.00
26112;BME280;13829;48.990;8.346;2023-10-31T12:13:41;99441.88;;;15.10;100.00
26112;BME280;13829;48.990;8.346;2023-10-31T12:16:10;99441.88;;;15.10;100.00
26112;BME280;13829;48.990;8.346;2023-10-31T12:18:38;99452.31;;;15.16;100.00
26112;BME280;13829;48.990;8.346;2023-10-31T12:21:06;99447.91;;;15.15;100.00
26112;BME280;13829;48.990;8.346;2023-10-31T12:23:34;99456.03;;;15.09;100.00
26112;BME280;13829;48.990;8.346;2023-10-31T12:26:01;99455.34;;;15.03;100.00
26112;BME280;13829;48.990;8.346;2023-10-31T12:28:28;99454.75;;;14.93;100.00
26112;BME280;13829;48.990;8.346;2023-10-31T12:30:57;99447.22;;;15.09;100.00
26112;BME280;13829;48.990;8.346;2023-10-31T12:33:27;99444.44;;;15.13;100.00
26112;BME280;13829;48.990;8.346;2023-10-31T12:35:59;99446.00;;;15.21;100.00
26112;BME280;13829;48.990;8.346;2023-10-31T12:38:27;99444.00;;;15.29;100.00
26112;BME280;13829;48.990;8.346;2023-10-31T12:40:56;99441.91;;;15.39;100.00
26112;BME280;13829;48.990;8.346;2023-10-31T12:43:24;99443.06;;;15.30;100.00
26112;BME280;13829;48.990;8.346;2023-10-31T12:45:53;99447.16;;;15.40;100.00
26112;BME280;13829;48.990;8.346;2023-10-31T12:48:24;99452.09;;;15.53;100.00
26112;BME280;13829;48.990;8.346;2023-10-31T12:51:06;99452.75;;;15.31;100.00
26112;BME280;13829;48.990;8.346;2023-10-31T12:53:34;99451.56;;;15.41;100.00
26112;BME280;13829;48.990;8.346;2023-10-31T12:56:01;99448.00;;;15.42;100.00